Time;durP1;ratioP1;P1;durP2;ratioP2;P2;SDS_P1;SDS_P2;PMS_P1;PMS_P2;Temp;Humidity;BMP_temperature;BMP_pressure;BME280_temperature;BME280_humidity;BME280_pressure;Samples;Min_cycle;Max_cycle;Signal;HPM_P1;HPM_P2
2021/12/01 00:01:17;;;;;;;8.82;2.40;;;5.00;99.90;;;;;;5091925;28;20213;-50
2021/12/01 00:03:43;;;;;;;5.93;2.60;;;5.00;99.90;;;;;;5091818;28;20227;-51
2021/12/01 00:06:10;;;;;;;8.57;2.85;;;4.70;99.90;;;;;;5092034;28;20206;-51
2021/12/01 00:08:37;;;;;;;7.95;3.03;;;4.90;99.90;;;;;;5091437;28;20250;-50
2021/12/01 00:11:04;;;;;;;8.57;3.97;;;5.10;99.90;;;;;;5091972;28;20198;-51
2021/12/01 00:13:32;;;;;;;7.63;3.20;;;5.10;99.90;;;;;;5073729;28;20300;-51
2021/12/01 00:16:01;;;;;;;9.80;2.60;;;4.90;99.90;;;;;;5091816;28;20263;-51
2021/12/01 00:18:28;;;;;;;7.43;2.92;;;4.80;99.90;;;;;;5091231;28;20210;-51
2021/12/01 00:20:55;;;;;;;7.93;2.47;;;5.00;99.90;;;;;;5091886;28;20206;-51
2021/12/01 00:23:21;;;;;;;5.93;3.08;;;4.90;99.90;;;;;;5091646;28;20615;-50
2021/12/01 00:25:48;;;;;;;9.73;3.25;;;5.10;99.90;;;;;;5099812;28;20315;-51
2021/12/01 00:28:15;;;;;;;12.55;3.60;;;5.10;99.90;;;;;;5111353;28;20218;-50
2021/12/01 00:30:42;;;;;;;9.20;3.20;;;5.10;99.90;;;;;;5111872;28;20194;-51
2021/12/01 00:33:14;;;;;;;5.75;2.35;;;5.00;99.90;;;;;;5112007;28;20540;-51
2021/12/01 00:35:41;;;;;;;6.83;2.67;;;5.10;99.90;;;;;;5073566;28;20211;-51
2021/12/01 00:38:08;;;;;;;7.57;2.63;;;5.00;99.90;;;;;;5091177;28;20947;-51
2021/12/01 00:40:35;;;;;;;5.73;2.10;;;5.00;99.90;;;;;;5091658;28;20575;-51
2021/12/01 00:43:01;;;;;;;9.00;4.47;;;5.00;99.90;;;;;;5091258;28;20501;-50
2021/12/01 00:45:32;;;;;;;8.30;4.40;;;5.30;99.90;;;;;;5091754;28;20782;-50
2021/12/01 00:48:01;;;;;;;11.63;2.97;;;5.00;99.90;;;;;;5090937;28;20191;-51
2021/12/01 00:50:32;;;;;;;7.77;3.23;;;5.00;99.90;;;;;;5091446;28;20441;-51
2021/12/01 00:53:01;;;;;;;7.38;2.35;;;5.20;99.90;;;;;;5091448;28;20786;-50
2021/12/01 00:55:28;;;;;;;5.93;2.67;;;5.20;99.90;;;;;;5091412;28;20523;-50
2021/12/01 00:57:57;;;;;;;9.37;2.77;;;5.20;99.90;;;;;;5091004;28;20918;-50
2021/12/01 01:00:26;;;;;;;9.70;2.60;;;4.90;99.90;;;;;;5091195;28;20468;-50
2021/12/01 01:02:56;;;;;;;14.13;2.90;;;5.30;99.90;;;;;;5091380;28;20472;-51
2021/12/01 01:05:23;;;;;;;8.00;2.55;;;4.90;99.90;;;;;;5091290;28;20445;-51
2021/12/01 01:07:51;;;;;;;9.10;2.60;;;5.20;99.90;;;;;;5094843;28;20202;-50
2021/12/01 01:10:34;;;;;;;8.10;3.00;;;4.80;99.90;;;;;;5095214;28;20460;-50
2021/12/01 01:18:36;;;;;;;15.45;2.47;;;5.10;99.90;;;;;;5094757;28;20441;-50
2021/12/01 01:21:03;;;;;;;8.80;2.25;;;5.30;99.90;;;;;;5095051;28;20252;-50
2021/12/01 01:23:32;;;;;;;12.95;2.30;;;5.40;99.90;;;;;;5094938;28;20711;-49
2021/12/01 01:26:00;;;;;;;4.35;2.03;;;5.40;99.90;;;;;;5104458;28;20267;-50
2021/12/01 01:28:26;;;;;;;6.85;2.90;;;5.10;99.90;;;;;;5114844;28;20694;-50
2021/12/01 01:30:54;;;;;;;8.02;2.70;;;5.20;99.90;;;;;;5115216;28;20206;-50
2021/12/01 01:33:20;;;;;;;9.30;2.50;;;4.90;99.90;;;;;;5114318;28;20190;-50
2021/12/01 01:35:47;;;;;;;7.18;2.92;;;5.30;99.90;;;;;;5094670;28;20206;-50
2021/12/01 01:38:14;;;;;;;7.53;2.17;;;5.20;99.90;;;;;;5094225;28;20226;-50
2021/12/01 01:40:42;;;;;;;9.20;2.80;;;5.20;99.90;;;;;;5094578;28;20428;-50
2021/12/01 01:43:09;;;;;;;10.82;2.83;;;4.90;99.90;;;;;;5094381;28;20211;-50
2021/12/01 01:45:36;;;;;;;8.20;3.07;;;5.40;99.90;;;;;;5094528;28;20199;-50
2021/12/01 01:48:04;;;;;;;8.20;2.43;;;5.30;99.90;;;;;;5094181;28;20428;-50
2021/12/01 01:50:36;;;;;;;8.83;2.80;;;5.20;99.90;;;;;;5094363;28;20528;-50
2021/12/01 01:53:06;;;;;;;14.83;3.20;;;5.10;99.90;;;;;;5094710;28;21108;-50
2021/12/01 01:55:33;;;;;;;13.13;3.80;;;5.20;99.90;;;;;;5094380;28;20430;-50
2021/12/01 01:58:02;;;;;;;11.80;2.77;;;5.50;99.90;;;;;;5093672;28;20490;-50
2021/12/01 02:00:29;;;;;;;9.67;2.43;;;5.10;99.90;;;;;;5094608;28;20760;-50
2021/12/01 02:02:58;;;;;;;9.90;3.57;;;5.40;99.90;;;;;;5094123;28;20479;-50
2021/12/01 02:05:25;;;;;;;16.10;3.00;;;5.20;99.90;;;;;;5094227;28;20439;-50
2021/12/01 02:07:53;;;;;;;12.13;3.00;;;5.00;99.90;;;;;;5093836;28;20937;-50
2021/12/01 02:10:19;;;;;;;13.07;3.50;;;5.50;99.90;;;;;;5075769;28;20865;-50
2021/12/01 02:12:46;;;;;;;17.97;3.60;;;5.40;99.90;;;;;;5094194;28;20806;-50
2021/12/01 02:15:16;;;;;;;11.63;3.17;;;5.40;99.90;;;;;;5094037;28;20804;-51
2021/12/01 02:17:43;;;;;;;7.33;3.23;;;5.40;99.90;;;;;;5092300;28;20436;-49
2021/12/01 02:20:20;;;;;;;14.82;4.40;;;5.40;99.90;;;;;;5093778;28;20453;-50
2021/12/01 02:22:47;;;;;;;10.00;3.13;;;5.60;99.90;;;;;;5093855;28;20642;-50
2021/12/01 02:25:14;;;;;;;9.00;2.90;;;5.50;99.90;;;;;;5096874;28;20402;-50
2021/12/01 02:27:41;;;;;;;13.47;3.93;;;5.40;99.90;;;;;;5113847;28;20924;-50
2021/12/01 02:30:09;;;;;;;8.98;5.10;;;5.60;99.90;;;;;;5114226;28;20428;-51
2021/12/01 02:32:36;;;;;;;10.98;4.30;;;5.30;99.90;;;;;;5114602;28;20249;-50
2021/12/01 02:35:03;;;;;;;17.45;3.83;;;5.50;99.90;;;;;;5098787;28;20202;-50
2021/12/01 02:37:31;;;;;;;9.13;3.00;;;5.80;99.90;;;;;;5093548;28;20210;-51
2021/12/01 02:39:58;;;;;;;18.33;4.05;;;5.50;99.90;;;;;;5093155;28;20480;-49
2021/12/01 02:42:24;;;;;;;11.10;3.30;;;5.40;99.90;;;;;;5093591;28;20601;-49
2021/12/01 02:44:51;;;;;;;9.25;3.83;;;5.30;99.90;;;;;;5093443;28;20480;-49
2021/12/01 02:47:18;;;;;;;16.63;3.90;;;5.60;99.90;;;;;;5075289;28;20625;-50
2021/12/01 02:49:45;;;;;;;15.27;3.87;;;5.40;99.90;;;;;;5092886;28;20613;-49
2021/12/01 02:52:12;;;;;;;10.77;3.92;;;5.50;99.90;;;;;;5093305;28;20447;-48
2021/12/01 02:54:40;;;;;;;10.82;4.00;;;5.00;99.90;;;;;;5093140;28;20211;-50
2021/12/01 02:57:07;;;;;;;13.25;3.60;;;5.40;99.90;;;;;;5093145;28;20314;-49
2021/12/01 02:59:34;;;;;;;15.52;3.88;;;5.00;99.90;;;;;;5091865;28;20225;-50
2021/12/01 03:02:01;;;;;;;15.20;3.75;;;5.60;99.90;;;;;;5092077;28;20194;-50
2021/12/01 03:04:28;;;;;;;13.70;3.38;;;5.50;99.90;;;;;;5091971;28;20297;-50
2021/12/01 03:06:55;;;;;;;12.00;4.10;;;5.60;99.90;;;;;;5092219;28;20199;-51
2021/12/01 03:09:22;;;;;;;7.27;2.87;;;6.00;99.90;;;;;;5091657;28;20457;-50
2021/12/01 03:11:50;;;;;;;12.70;3.08;;;5.60;99.90;;;;;;5092180;28;20432;-51
2021/12/01 03:14:18;;;;;;;15.10;3.43;;;5.50;99.90;;;;;;5092089;28;20230;-50
2021/12/01 03:16:46;;;;;;;16.35;3.40;;;5.40;99.90;;;;;;5091937;28;20903;-51
2021/12/01 03:19:13;;;;;;;10.55;3.45;;;5.50;99.90;;;;;;5091566;28;20227;-50
2021/12/01 03:21:41;;;;;;;10.10;3.40;;;4.80;99.90;;;;;;5091870;28;20206;-50
2021/12/01 03:24:09;;;;;;;17.08;3.65;;;5.40;99.90;;;;;;5092224;28;20218;-50
2021/12/01 03:26:36;;;;;;;13.30;2.80;;;5.10;99.90;;;;;;5106667;28;20204;-50
2021/12/01 03:29:06;;;;;;;13.57;3.78;;;5.60;99.90;;;;;;5111705;28;20702;-50
2021/12/01 03:31:33;;;;;;;9.68;4.47;;;5.70;99.90;;;;;;5112189;28;20198;-50
2021/12/01 03:34:00;;;;;;;11.40;3.63;;;6.00;99.90;;;;;;5105957;28;20207;-50
2021/12/01 03:36:26;;;;;;;17.65;3.70;;;5.60;99.90;;;;;;5091829;28;20411;-50
2021/12/01 03:38:53;;;;;;;10.20;3.05;;;5.80;99.90;;;;;;5091593;28;20215;-50
2021/12/01 03:41:19;;;;;;;15.93;3.67;;;5.70;99.90;;;;;;5091608;28;20198;-51
2021/12/01 03:43:47;;;;;;;11.85;3.80;;;5.60;99.90;;;;;;5091765;28;20484;-50
2021/12/01 03:46:16;;;;;;;15.73;4.47;;;5.60;99.90;;;;;;5091430;28;20198;-50
2021/12/01 03:48:42;;;;;;;14.20;3.93;;;5.70;99.90;;;;;;5091240;28;20438;-50
2021/12/01 03:51:09;;;;;;;10.53;3.30;;;5.70;99.90;;;;;;5091634;28;20404;-51
2021/12/01 03:53:36;;;;;;;9.93;3.20;;;5.60;99.90;;;;;;5091428;28;20404;-50
2021/12/01 03:56:02;;;;;;;10.70;2.73;;;5.90;99.90;;;;;;5091281;28;20246;-50
2021/12/01 03:58:29;;;;;;;11.67;2.80;;;5.70;99.90;;;;;;5053909;28;1057307;-50
2021/12/01 04:00:56;;;;;;;13.30;3.30;;;5.80;99.90;;;;;;5092092;28;20199;-51
2021/12/01 04:03:24;;;;;;;15.80;3.33;;;5.70;99.90;;;;;;5091956;28;20442;-50
2021/12/01 04:05:50;;;;;;;13.53;3.93;;;5.80;99.90;;;;;;5092072;28;20841;-50
2021/12/01 04:08:17;;;;;;;15.93;3.50;;;5.60;99.90;;;;;;5091770;28;20461;-50
2021/12/01 04:10:43;;;;;;;8.73;2.83;;;5.80;99.90;;;;;;5091910;28;20860;-50
2021/12/01 04:13:10;;;;;;;15.57;3.30;;;5.80;99.90;;;;;;5091802;28;20411;-50
2021/12/01 04:15:37;;;;;;;16.63;4.40;;;5.80;99.90;;;;;;5091662;28;20404;-49
2021/12/01 04:18:03;;;;;;;12.23;3.60;;;6.00;99.90;;;;;;5091180;28;20420;-50
2021/12/01 04:20:31;;;;;;;13.50;3.90;;;5.70;99.90;;;;;;5091657;28;20922;-51
2021/12/01 04:22:58;;;;;;;12.47;4.23;;;5.40;99.90;;;;;;5091914;28;20436;-50
2021/12/01 04:25:25;;;;;;;15.77;4.27;;;6.10;99.90;;;;;;5096460;28;20695;-50
2021/12/01 04:27:53;;;;;;;12.67;4.00;;;5.50;99.90;;;;;;5111869;28;20488;-51
2021/12/01 04:30:22;;;;;;;13.67;4.23;;;5.90;99.90;;;;;;5112258;28;20428;-51
2021/12/01 04:32:50;;;;;;;18.47;4.60;;;5.80;99.90;;;;;;5094096;28;20487;-51
2021/12/01 04:35:19;;;;;;;12.80;4.07;;;5.90;99.90;;;;;;5094647;28;20412;-50
2021/12/01 04:37:48;;;;;;;15.67;3.80;;;6.10;99.90;;;;;;5091272;28;20412;-50
2021/12/01 04:40:15;;;;;;;18.67;4.60;;;5.90;99.90;;;;;;5091332;28;20432;-50
2021/12/01 04:42:43;;;;;;;15.93;4.40;;;6.00;99.90;;;;;;5095613;28;20429;-51
2021/12/01 04:45:14;;;;;;;11.97;4.53;;;5.80;99.90;;;;;;5095652;28;20453;-50
2021/12/01 04:47:43;;;;;;;9.57;4.23;;;6.10;99.90;;;;;;5095334;28;20428;-50
2021/12/01 04:50:12;;;;;;;15.97;5.40;;;6.20;99.90;;;;;;5095534;28;20473;-50
2021/12/01 04:52:39;;;;;;;19.43;4.20;;;6.00;99.90;;;;;;5095628;28;20522;-50
2021/12/01 04:55:08;;;;;;;17.23;4.00;;;6.00;99.90;;;;;;5077169;28;20441;-50
2021/12/01 04:57:38;;;;;;;12.07;3.57;;;6.10;99.90;;;;;;5095474;28;20437;-50
2021/12/01 05:00:06;;;;;;;17.10;4.00;;;6.10;99.90;;;;;;5095773;28;20448;-51
2021/12/01 05:02:32;;;;;;;17.10;4.80;;;6.30;99.90;;;;;;5095282;28;20412;-51
2021/12/01 05:04:59;;;;;;;15.70;4.83;;;5.90;99.90;;;;;;5095262;28;20762;-51
2021/12/01 05:07:26;;;;;;;13.35;3.90;;;6.00;99.90;;;;;;5095193;28;20440;-51
2021/12/01 05:09:54;;;;;;;9.77;4.67;;;6.10;99.90;;;;;;5095202;28;20303;-51
2021/12/01 05:12:21;;;;;;;11.73;3.37;;;6.20;99.90;;;;;;5095676;28;20457;-51
2021/12/01 05:14:48;;;;;;;6.80;3.63;;;5.50;99.90;;;;;;5095107;28;20401;-50
2021/12/01 05:17:15;;;;;;;15.13;3.33;;;6.20;99.90;;;;;;5094657;28;20433;-51
2021/12/01 05:19:41;;;;;;;17.17;4.40;;;6.40;99.90;;;;;;5095102;28;20468;-51
2021/12/01 05:22:09;;;;;;;12.03;3.13;;;5.90;99.90;;;;;;5094953;28;20412;-50
2021/12/01 05:24:36;;;;;;;14.60;3.80;;;5.60;99.90;;;;;;5094768;28;20467;-51
2021/12/01 05:27:04;;;;;;;11.33;3.57;;;5.80;99.90;;;;;;5113141;28;20418;-50
2021/12/01 05:29:32;;;;;;;11.50;4.07;;;5.60;99.90;;;;;;5114972;28;20476;-50
2021/12/01 05:31:59;;;;;;;12.77;4.27;;;6.10;99.90;;;;;;5115374;28;20421;-50
2021/12/01 05:34:26;;;;;;;13.68;4.30;;;6.00;99.90;;;;;;5115286;28;20414;-50
2021/12/01 05:36:54;;;;;;;15.90;3.90;;;6.50;99.90;;;;;;5114983;28;20685;-51
2021/12/01 05:39:21;;;;;;;14.10;4.57;;;6.20;99.90;;;;;;5114731;28;20492;-50
2021/12/01 05:41:48;;;;;;;11.53;3.70;;;5.50;99.90;;;;;;5114821;28;20495;-51
2021/12/01 05:44:15;;;;;;;11.00;3.97;;;6.20;99.90;;;;;;5114814;28;20584;-51
2021/12/01 05:46:43;;;;;;;9.90;4.83;;;6.10;99.90;;;;;;5114598;28;20426;-49
2021/12/01 05:49:09;;;;;;;11.03;3.67;;;6.00;99.90;;;;;;5114584;28;20432;-50
2021/12/01 05:51:36;;;;;;;12.30;4.37;;;6.00;99.90;;;;;;5114201;28;20403;-52
2021/12/01 05:54:03;;;;;;;16.83;5.27;;;6.00;99.90;;;;;;5114635;28;20457;-51
2021/12/01 05:56:30;;;;;;;8.10;3.63;;;6.10;99.90;;;;;;5114492;28;20480;-51
2021/12/01 05:58:57;;;;;;;14.07;3.83;;;6.40;99.90;;;;;;5114251;28;20442;-51
2021/12/01 06:01:23;;;;;;;10.50;4.10;;;6.00;99.90;;;;;;5114496;28;20433;-51
2021/12/01 06:03:52;;;;;;;4.80;2.50;;;6.20;99.90;;;;;;5114539;28;20447;-51
2021/12/01 06:06:18;;;;;;;8.93;3.47;;;6.00;99.90;;;;;;5114390;28;20447;-51
2021/12/01 06:08:45;;;;;;;17.60;3.90;;;6.00;99.90;;;;;;5113960;28;20488;-51
2021/12/01 06:11:12;;;;;;;14.33;3.57;;;6.10;99.90;;;;;;5114192;28;20823;-52
2021/12/01 06:13:40;;;;;;;8.50;4.20;;;6.00;99.90;;;;;;5114142;28;20416;-51
2021/12/01 06:16:07;;;;;;;10.23;4.00;;;6.00;99.90;;;;;;5114160;28;20440;-51
2021/12/01 06:18:34;;;;;;;6.87;3.90;;;6.20;99.90;;;;;;5113759;28;20525;-51
2021/12/01 06:21:02;;;;;;;12.33;4.50;;;6.00;99.90;;;;;;5114032;28;20398;-51
2021/12/01 06:23:29;;;;;;;15.83;4.27;;;6.20;99.90;;;;;;5113432;28;20507;-50
2021/12/01 06:25:56;;;;;;;16.27;4.87;;;;;;;;;;5113522;28;20510;-50
2021/12/01 06:28:23;;;;;;;11.87;7.03;;;6.20;99.90;;;;;;5113302;28;20426;-51
2021/12/01 06:30:49;;;;;;;13.77;5.90;;;6.20;99.90;;;;;;5113471;28;20432;-50
2021/12/01 06:33:16;;;;;;;10.47;3.97;;;6.20;99.90;;;;;;5113589;28;20426;-51
2021/12/01 06:35:47;;;;;;;17.80;6.73;;;6.10;99.90;;;;;;5113607;28;20940;-51
2021/12/01 06:38:15;;;;;;;13.40;5.90;;;6.20;99.90;;;;;;5112596;28;20442;-51
2021/12/01 06:40:41;;;;;;;16.83;6.43;;;5.70;99.90;;;;;;5113482;28;20892;-51
2021/12/01 06:43:08;;;;;;;10.80;5.00;;;6.20;99.90;;;;;;5113152;28;20896;-52
2021/12/01 06:45:35;;;;;;;12.93;5.60;;;6.10;99.90;;;;;;5112325;28;20467;-54
2021/12/01 06:48:01;;;;;;;9.60;4.60;;;6.30;99.90;;;;;;5112831;28;20534;-53
2021/12/01 06:50:28;;;;;;;10.97;5.57;;;6.10;99.90;;;;;;5112826;28;20416;-52
2021/12/01 06:52:55;;;;;;;12.10;4.80;;;6.10;99.90;;;;;;5093994;28;20948;-52
2021/12/01 06:55:23;;;;;;;12.57;5.63;;;6.20;99.90;;;;;;5113152;28;20901;-52
2021/12/01 06:57:50;;;;;;;9.83;4.70;;;6.20;99.90;;;;;;5112247;28;20428;-52
2021/12/01 07:00:19;;;;;;;9.90;4.60;;;6.10;99.90;;;;;;5112843;28;20450;-52
2021/12/01 07:02:46;;;;;;;9.17;4.60;;;6.20;99.90;;;;;;5094258;28;20456;-52
2021/12/01 07:05:13;;;;;;;8.53;4.70;;;5.80;99.90;;;;;;5112419;28;20472;-52
2021/12/01 07:07:40;;;;;;;11.07;4.77;;;6.30;99.90;;;;;;5093667;28;20417;-52
2021/12/01 07:10:10;;;;;;;8.90;4.93;;;6.10;99.90;;;;;;5112419;28;20981;-51
2021/12/01 07:12:38;;;;;;;7.03;4.40;;;6.40;99.90;;;;;;5113030;28;20403;-51
2021/12/01 07:15:05;;;;;;;6.40;4.50;;;6.40;99.90;;;;;;5112771;28;20742;-51
2021/12/01 07:17:32;;;;;;;7.30;4.97;;;6.20;99.90;;;;;;5112132;28;20436;-52
2021/12/01 07:19:59;;;;;;;8.40;4.77;;;6.50;99.90;;;;;;5112383;28;20456;-51
2021/12/01 07:22:25;;;;;;;5.70;4.93;;;6.40;99.90;;;;;;5112829;28;20407;-53
2021/12/01 07:24:52;;;;;;;6.40;4.80;;;6.60;99.90;;;;;;5112160;28;20447;-52
2021/12/01 07:27:19;;;;;;;9.33;4.20;;;6.70;99.90;;;;;;5111838;28;20499;-52
2021/12/01 07:29:47;;;;;;;7.20;5.93;;;6.50;99.90;;;;;;5111966;28;20435;-52
2021/12/01 07:32:13;;;;;;;6.43;5.70;;;6.20;99.90;;;;;;5112259;28;20751;-52
2021/12/01 07:34:43;;;;;;;10.60;4.87;;;6.00;99.90;;;;;;5112196;28;20418;-52
2021/12/01 07:37:10;;;;;;;8.20;4.70;;;6.60;99.90;;;;;;5111937;28;20520;-51
2021/12/01 07:39:37;;;;;;;8.07;4.70;;;7.00;99.90;;;;;;5112113;28;20429;-52
2021/12/01 07:42:04;;;;;;;6.17;5.27;;;7.00;99.90;;;;;;5112083;28;20428;-52
2021/12/01 07:44:31;;;;;;;10.40;5.37;;;6.70;99.90;;;;;;5112061;28;20859;-52
2021/12/01 07:47:00;;;;;;;8.47;6.50;;;6.80;99.90;;;;;;5112129;28;20775;-52
2021/12/01 07:49:27;;;;;;;7.53;5.53;;;6.60;99.90;;;;;;5111798;28;20465;-52
2021/12/01 07:51:54;;;;;;;6.60;5.47;;;6.90;99.90;;;;;;5111747;28;20425;-52
2021/12/01 07:54:21;;;;;;;11.23;6.83;;;6.90;99.90;;;;;;5111303;28;20400;-51
2021/12/01 07:56:47;;;;;;;9.50;6.53;;;6.80;99.90;;;;;;5111973;28;20862;-52
2021/12/01 07:59:15;;;;;;;9.43;6.33;;;6.80;99.90;;;;;;5111301;28;20966;-52
2021/12/01 08:01:42;;;;;;;17.67;7.23;;;6.80;99.90;;;;;;5111343;28;20404;-51
2021/12/01 08:04:10;;;;;;;18.10;7.50;;;7.00;99.90;;;;;;5111800;28;20408;-52
2021/12/01 08:06:37;;;;;;;10.70;6.70;;;7.00;99.90;;;;;;5111428;28;20463;-52
2021/12/01 08:09:06;;;;;;;22.23;6.87;;;6.60;99.90;;;;;;5111728;28;20796;-52
2021/12/01 08:11:33;;;;;;;9.10;6.40;;;6.90;99.90;;;;;;5111806;28;20404;-52
2021/12/01 08:14:00;;;;;;;8.40;6.70;;;7.10;99.90;;;;;;5111340;28;20464;-52
2021/12/01 08:16:27;;;;;;;7.90;6.77;;;6.40;99.90;;;;;;5111754;28;20411;-52
2021/12/01 08:18:55;;;;;;;7.47;6.77;;;7.10;99.90;;;;;;5111589;28;20953;-52
2021/12/01 08:21:24;;;;;;;7.93;6.30;;;7.30;99.90;;;;;;5111226;28;20448;-51
2021/12/01 08:23:51;;;;;;;9.80;7.40;;;6.60;99.90;;;;;;5111020;28;20437;-52
2021/12/01 08:26:18;;;;;;;7.30;6.27;;;6.90;99.90;;;;;;5111391;28;20485;-52
2021/12/01 08:28:46;;;;;;;7.43;6.73;;;7.20;99.90;;;;;;5111208;28;20504;-51
2021/12/01 08:31:13;;;;;;;7.27;6.57;;;6.60;99.90;;;;;;5111485;28;20430;-51
2021/12/01 08:33:40;;;;;;;8.00;6.77;;;7.30;99.90;;;;;;5111412;28;20897;-52
2021/12/01 08:36:06;;;;;;;8.00;6.73;;;7.50;99.90;;;;;;5110752;28;20889;-51
2021/12/01 08:38:34;;;;;;;6.67;6.07;;;7.00;99.90;;;;;;5111236;28;20973;-52
2021/12/01 08:41:01;;;;;;;6.33;5.73;;;7.20;99.90;;;;;;5111268;28;20566;-52
2021/12/01 08:43:28;;;;;;;7.80;7.07;;;7.30;99.90;;;;;;5110885;28;20426;-52
2021/12/01 08:45:55;;;;;;;7.03;6.27;;;6.90;99.90;;;;;;5110933;28;20477;-51
2021/12/01 08:48:21;;;;;;;8.43;7.20;;;7.50;99.90;;;;;;5110558;28;20510;-52
2021/12/01 08:50:48;;;;;;;7.47;6.77;;;7.50;99.90;;;;;;5111092;28;20883;-52
2021/12/01 08:53:15;;;;;;;8.80;6.90;;;7.40;99.90;;;;;;5111105;28;20779;-52
2021/12/01 08:55:45;;;;;;;6.60;6.00;;;7.50;99.90;;;;;;5111216;28;20450;-52
2021/12/01 08:58:14;;;;;;;6.30;5.80;;;7.50;99.90;;;;;;5110662;28;20441;-51
2021/12/01 09:00:45;;;;;;;6.90;6.20;;;7.30;99.90;;;;;;5111150;28;20907;-50
2021/12/01 09:03:13;;;;;;;7.37;6.67;;;7.10;99.90;;;;;;5111201;28;20409;-52
2021/12/01 09:05:40;;;;;;;6.80;6.20;;;7.70;99.90;;;;;;5092463;28;20828;-53
2021/12/01 09:08:07;;;;;;;8.10;6.70;;;7.80;99.90;;;;;;5110467;28;20408;-52
2021/12/01 09:10:34;;;;;;;6.80;6.10;;;7.20;99.90;;;;;;5111135;28;20435;-53
2021/12/01 09:13:03;;;;;;;6.27;5.67;;;7.60;99.90;;;;;;5111094;28;20417;-51
2021/12/01 09:15:30;;;;;;;7.47;6.43;;;7.70;99.90;;;;;;5110766;28;20460;-52
2021/12/01 09:17:57;;;;;;;5.90;5.40;;;7.60;99.90;;;;;;5110690;28;20773;-52
2021/12/01 09:20:24;;;;;;;5.70;5.20;;;7.70;99.90;;;;;;5110953;28;20420;-52
2021/12/01 09:22:51;;;;;;;5.20;4.70;;;7.50;99.90;;;;;;5110893;28;20441;-52
2021/12/01 09:25:17;;;;;;;5.80;5.10;;;7.30;99.90;;;;;;5110866;28;20994;-52
2021/12/01 09:27:45;;;;;;;6.70;4.90;;;7.50;99.90;;;;;;5112659;28;20434;-52
2021/12/01 09:30:16;;;;;;;5.13;4.63;;;8.10;99.90;;;;;;5090436;28;20528;-52
2021/12/01 09:32:42;;;;;;;6.00;4.53;;;7.70;99.90;;;;;;5075912;28;20454;-52
2021/12/01 09:35:13;;;;;;;4.23;3.93;;;7.80;99.90;;;;;;5094176;28;20441;-52
2021/12/01 09:37:41;;;;;;;5.27;4.77;;;7.40;99.90;;;;;;5094078;28;20449;-51
2021/12/01 09:40:13;;;;;;;5.17;4.73;;;8.30;99.90;;;;;;5094080;28;20459;-52
2021/12/01 09:42:42;;;;;;;5.40;4.50;;;7.10;99.90;;;;;;5094346;28;20516;-51
2021/12/01 09:45:09;;;;;;;5.73;4.17;;;8.10;99.90;;;;;;5094395;28;20435;-52
2021/12/01 09:47:37;;;;;;;4.43;4.03;;;8.00;99.90;;;;;;5093668;28;20416;-52
2021/12/01 09:50:06;;;;;;;3.90;3.50;;;8.50;99.90;;;;;;5075718;28;20450;-52
2021/12/01 09:52:32;;;;;;;3.40;3.00;;;7.90;99.90;;;;;;5094055;28;20785;-52
2021/12/01 09:55:00;;;;;;;5.83;3.67;;;8.10;99.90;;;;;;5075885;28;20451;-51
2021/12/01 09:57:26;;;;;;;6.20;4.47;;;8.10;99.90;;;;;;5093951;28;20538;-52
2021/12/01 09:59:53;;;;;;;4.37;3.70;;;7.90;99.90;;;;;;5093360;28;20472;-52
2021/12/01 10:02:21;;;;;;;3.47;3.17;;;8.10;99.90;;;;;;5093706;28;20432;-51
2021/12/01 10:04:49;;;;;;;6.30;3.67;;;7.60;99.90;;;;;;5107953;28;20485;-52
2021/12/01 10:07:19;;;;;;;4.00;3.20;;;8.20;99.90;;;;;;5113569;28;20835;-52
2021/12/01 10:09:50;;;;;;;5.40;3.30;;;8.00;99.90;;;;;;5112421;28;20458;-51
2021/12/01 10:12:17;;;;;;;3.40;3.10;;;8.10;99.90;;;;;;5113282;28;20500;-51
2021/12/01 10:14:48;;;;;;;3.70;2.83;;;8.70;99.90;;;;;;5113402;28;20419;-52
2021/12/01 10:17:15;;;;;;;5.77;3.20;;;8.70;99.90;;;;;;5113624;28;20417;-51
2021/12/01 10:19:42;;;;;;;3.50;3.20;;;8.20;99.90;;;;;;5113179;28;20777;-52
2021/12/01 10:22:12;;;;;;;3.53;2.87;;;8.30;99.90;;;;;;5113671;28;20422;-51
2021/12/01 10:24:41;;;;;;;4.70;4.03;;;8.70;99.90;;;;;;5095422;28;20535;-51
2021/12/01 10:27:11;;;;;;;4.53;3.33;;;8.40;99.90;;;;;;5113646;28;20547;-51
2021/12/01 10:29:42;;;;;;;5.10;3.73;;;8.30;99.90;;;;;;5113425;28;20962;-52
2021/12/01 10:32:15;;;;;;;3.80;3.13;;;8.40;99.90;;;;;;5114080;28;21064;-51
2021/12/01 10:34:46;;;;;;;4.10;3.00;;;8.70;99.90;;;;;;5113403;28;20406;-52
2021/12/01 10:37:18;;;;;;;4.80;3.63;;;8.50;99.90;;;;;;5113571;28;20392;-52
2021/12/01 10:39:47;;;;;;;4.17;2.57;;;8.70;99.90;;;;;;5112098;28;20517;-51
2021/12/01 10:42:15;;;;;;;5.23;3.23;;;8.00;99.90;;;;;;5113398;28;20439;-52
2021/12/01 10:44:57;;;;;;;4.00;3.27;;;8.50;99.90;;;;;;5113293;28;20442;-52
2021/12/01 10:47:24;;;;;;;6.60;3.90;;;8.60;99.90;;;;;;5113155;28;20464;-51
2021/12/01 10:49:50;;;;;;;3.63;3.33;;;8.80;99.90;;;;;;5112964;28;20448;-53
2021/12/01 10:52:33;;;;;;;6.07;3.90;;;8.10;99.90;;;;;;5113180;28;20418;-52
2021/12/01 10:55:05;;;;;;;4.10;3.70;;;8.50;99.90;;;;;;5112752;28;20917;-51
2021/12/01 10:57:32;;;;;;;4.73;4.03;;;8.40;99.90;;;;;;5112951;28;20414;-51
2021/12/01 10:59:59;;;;;;;4.33;3.93;;;8.50;99.90;;;;;;5094859;28;20489;-51
2021/12/01 11:02:26;;;;;;;3.97;3.60;;;8.40;99.90;;;;;;5105632;28;20486;-50
2021/12/01 11:04:53;;;;;;;6.80;5.30;;;8.90;99.90;;;;;;5092203;28;20536;-51
2021/12/01 11:07:27;;;;;;;4.50;3.70;;;8.40;99.90;;;;;;5092366;28;20480;-51
2021/12/01 11:10:11;;;;;;;4.70;3.77;;;8.30;99.90;;;;;;5073500;28;21013;-51
2021/12/01 11:12:37;;;;;;;4.43;3.53;;;8.80;99.90;;;;;;5092357;28;20409;-51
2021/12/01 11:15:17;;;;;;;4.37;3.97;;;8.50;99.90;;;;;;5092230;28;20794;-50
2021/12/01 11:17:44;;;;;;;6.27;4.53;;;8.50;99.90;;;;;;5092015;28;20931;-51
2021/12/01 11:20:12;;;;;;;4.10;3.70;;;7.90;99.90;;;;;;5092169;28;20423;-50
2021/12/01 11:22:38;;;;;;;4.13;3.50;;;8.20;99.90;;;;;;5091626;28;20413;-50
2021/12/01 11:25:21;;;;;;;4.37;3.90;;;8.30;99.90;;;;;;5093785;28;20441;-50
2021/12/01 11:27:48;;;;;;;4.70;3.73;;;8.20;99.90;;;;;;5111527;28;21027;-50
2021/12/01 11:30:15;;;;;;;7.23;4.10;;;8.50;99.90;;;;;;5112264;28;20549;-52
2021/12/01 11:32:42;;;;;;;7.23;5.93;;;7.80;99.90;;;;;;5112064;28;20414;-52
2021/12/01 11:35:09;;;;;;;4.63;3.77;;;8.40;99.90;;;;;;5111537;28;20443;-50
2021/12/01 11:37:35;;;;;;;5.90;4.90;;;8.30;99.90;;;;;;5111736;28;20433;-50
2021/12/01 11:40:03;;;;;;;4.77;4.27;;;8.30;99.90;;;;;;5111837;28;20932;-51
2021/12/01 11:42:32;;;;;;;8.60;6.27;;;7.70;99.90;;;;;;5112046;28;20410;-51
2021/12/01 11:45:00;;;;;;;6.67;6.07;;;8.30;99.90;;;;;;5104994;28;20461;-51
2021/12/01 11:47:27;;;;;;;5.27;4.77;;;8.50;99.90;;;;;;5095631;28;20446;-51
2021/12/01 11:49:58;;;;;;;6.03;4.87;;;8.10;99.90;;;;;;5108898;28;20845;-52
2021/12/01 11:52:37;;;;;;;7.13;4.33;;;8.10;99.90;;;;;;5108104;28;20490;-52
2021/12/01 11:55:05;;;;;;;4.30;3.90;;;8.40;99.90;;;;;;5073296;28;20451;-52
2021/12/01 11:57:41;;;;;;;5.60;4.37;;;8.50;99.90;;;;;;5091463;28;20794;-52
2021/12/01 12:00:09;;;;;;;3.47;3.17;;;8.00;99.90;;;;;;5091058;28;20457;-51
2021/12/01 12:02:38;;;;;;;4.43;3.87;;;8.70;99.90;;;;;;5101178;28;20437;-52
2021/12/01 12:05:17;;;;;;;7.17;3.50;;;9.30;99.90;;;;;;5112154;28;20780;-52
2021/12/01 12:07:45;;;;;;;3.73;3.43;;;8.40;99.90;;;;;;5111438;28;20482;-52
2021/12/01 12:10:17;;;;;;;3.70;2.93;;;8.60;99.90;;;;;;5111772;28;20856;-50
2021/12/01 12:12:59;;;;;;;3.13;2.83;;;8.60;99.90;;;;;;5111229;28;20467;-49
2021/12/01 12:15:37;;;;;;;4.20;3.10;;;8.70;99.90;;;;;;5110990;28;20413;-50
2021/12/01 12:18:04;;;;;;;2.90;2.33;;;8.60;99.90;;;;;;5106476;28;20803;-50
2021/12/01 12:20:34;;;;;;;3.20;2.90;;;8.50;99.90;;;;;;5090800;28;20432;-50
2021/12/01 12:23:04;;;;;;;3.90;3.20;;;8.50;99.90;;;;;;5091119;28;20411;-50
2021/12/01 12:25:47;;;;;;;2.87;2.50;;;8.60;99.90;;;;;;5096205;28;20527;-50
2021/12/01 12:28:28;;;;;;;3.63;3.07;;;8.50;99.90;;;;;;5111210;28;20557;-50
2021/12/01 12:30:57;;;;;;;2.87;2.07;;;8.20;99.90;;;;;;5111521;28;20463;-50
2021/12/01 12:33:26;;;;;;;7.10;2.83;;;9.00;99.90;;;;;;5104697;28;20440;-50
2021/12/01 12:35:55;;;;;;;3.50;3.00;;;8.10;99.90;;;;;;5111214;28;20494;-50
2021/12/01 12:38:22;;;;;;;4.27;3.40;;;8.80;99.90;;;;;;5110865;28;20444;-50
2021/12/01 12:41:01;;;;;;;9.70;6.63;;;8.30;99.90;;;;;;5111540;28;20728;-50
2021/12/01 12:43:32;;;;;;;2.60;2.40;;;8.70;99.90;;;;;;5110885;28;20505;-51
2021/12/01 12:46:06;;;;;;;3.63;2.90;;;9.10;99.90;;;;;;5111165;28;20410;-50
2021/12/01 12:48:34;;;;;;;3.37;2.83;;;8.30;99.90;;;;;;5110925;28;20434;-51
2021/12/01 12:51:07;;;;;;;3.83;3.30;;;9.00;99.90;;;;;;5111392;28;20542;-51
2021/12/01 12:53:34;;;;;;;4.90;3.40;;;8.70;99.90;;;;;;5095550;28;20527;-50
2021/12/01 12:56:24;;;;;;;2.63;2.43;;;8.30;99.90;;;;;;5090467;28;20444;-51
2021/12/01 12:58:52;;;;;;;5.20;2.73;;;8.30;99.90;;;;;;5090308;28;20468;-51
2021/12/01 13:01:25;;;;;;;2.67;2.13;;;8.60;99.90;;;;;;5090803;28;20820;-51
2021/12/01 13:03:53;;;;;;;3.23;2.47;;;8.70;99.90;;;;;;5103885;28;20903;-51